createdAt,value
2019-04-28T00:01:37.033Z,8.80
2019-04-28T00:04:14.077Z,8.80
2019-04-28T00:06:51.559Z,8.70
2019-04-28T00:09:31.250Z,8.60
2019-04-28T00:12:08.385Z,8.60
2019-04-28T00:14:45.410Z,8.60
2019-04-28T00:17:22.381Z,8.60
2019-04-28T00:20:01.429Z,8.60
2019-04-28T00:22:56.998Z,8.50
2019-04-28T00:25:38.395Z,8.50
2019-04-28T00:28:15.383Z,8.50
2019-04-28T00:30:52.430Z,8.40
2019-04-28T00:33:29.435Z,8.40
2019-04-28T00:36:06.471Z,8.40
2019-04-28T00:38:43.509Z,8.30
2019-04-28T00:41:21.345Z,8.40
2019-04-28T00:43:58.490Z,8.30
2019-04-28T00:46:41.068Z,8.30
2019-04-28T00:49:21.354Z,8.30
2019-04-28T00:51:58.461Z,8.30
2019-04-28T00:54:35.471Z,8.30
2019-04-28T00:57:12.864Z,8.20
2019-04-28T00:59:58.255Z,8.20
2019-04-28T01:02:36.673Z,8.20
2019-04-28T01:05:14.308Z,8.20
2019-04-28T01:07:51.367Z,8.10
2019-04-28T01:10:30.807Z,8.10
2019-04-28T01:13:08.258Z,8.10
2019-04-28T01:16:05.508Z,8.10
2019-04-28T01:18:48.070Z,8.10
2019-04-28T01:21:27.352Z,8.10
2019-04-28T01:24:04.417Z,8.00
2019-04-28T01:26:41.670Z,8.00
2019-04-28T01:29:19.497Z,7.90
2019-04-28T01:32:10.315Z,7.90
2019-04-28T01:34:46.440Z,7.90
2019-04-28T01:37:23.493Z,7.90
2019-04-28T01:40:00.519Z,7.90
2019-04-28T01:42:37.565Z,7.90
2019-04-28T01:45:14.597Z,8.00
2019-04-28T01:47:51.650Z,8.00
2019-04-28T01:50:29.968Z,8.00
2019-04-28T01:53:07.119Z,8.00
2019-04-28T01:55:44.133Z,8.00
2019-04-28T01:58:27.020Z,8.00
2019-04-28T02:01:20.329Z,8.00
2019-04-28T02:04:16.157Z,8.10
2019-04-28T02:06:53.206Z,8.10
2019-04-28T02:09:30.221Z,8.10
2019-04-28T02:12:07.414Z,8.20
2019-04-28T02:14:44.431Z,8.30
2019-04-28T02:17:21.571Z,8.30
2019-04-28T02:20:00.653Z,8.40
2019-04-28T02:22:50.010Z,8.60
2019-04-28T02:25:27.221Z,8.80
2019-04-28T02:28:04.237Z,8.90
2019-04-28T02:30:48.888Z,9.00
2019-04-28T02:33:21.138Z,9.10
2019-04-28T02:36:01.205Z,9.20
2019-04-28T02:38:37.001Z,9.30
2019-04-28T02:41:14.008Z,9.30
2019-04-28T02:43:51.209Z,9.30
2019-04-28T02:46:30.665Z,9.30
2019-04-28T02:49:10.246Z,9.40
2019-04-28T02:51:54.794Z,9.40
2019-04-28T02:54:31.786Z,9.40
2019-04-28T02:57:10.751Z,9.40
2019-04-28T02:59:50.815Z,9.40
2019-04-28T03:02:31.653Z,9.40
2019-04-28T03:05:11.873Z,9.40
2019-04-28T03:07:51.463Z,9.40
2019-04-28T03:10:31.035Z,9.40
2019-04-28T03:13:10.817Z,9.30
2019-04-28T03:15:51.516Z,9.30
2019-04-28T03:18:31.733Z,9.30
2019-04-28T03:21:08.062Z,9.30
2019-04-28T03:23:53.366Z,9.30
2019-04-28T03:26:41.503Z,9.30
2019-04-28T03:29:26.350Z,9.30
2019-04-28T03:32:25.112Z,9.30
2019-04-28T03:34:53.175Z,9.30
2019-04-28T03:37:31.327Z,9.30
2019-04-28T03:40:07.395Z,9.30
2019-04-28T03:42:51.266Z,9.30
2019-04-28T03:45:30.676Z,9.30
2019-04-28T03:48:11.490Z,9.30
2019-04-28T03:50:51.214Z,9.30
2019-04-28T03:53:27.299Z,9.30
2019-04-28T03:56:04.325Z,9.30
2019-04-28T03:58:42.122Z,9.30
2019-04-28T04:01:20.679Z,9.20
2019-04-28T04:03:57.970Z,9.20
2019-04-28T04:06:40.954Z,9.20
2019-04-28T04:09:24.287Z,9.30
2019-04-28T04:12:36.607Z,9.30
2019-04-28T04:15:42.532Z,9.30
2019-04-28T04:18:26.279Z,9.40
2019-04-28T04:21:03.538Z,9.40
2019-04-28T04:23:41.088Z,9.50
2019-04-28T04:26:21.024Z,9.50
2019-04-28T04:28:57.106Z,9.50
2019-04-28T04:31:34.111Z,9.60
2019-04-28T04:34:11.106Z,9.60
2019-04-28T04:36:50.714Z,9.60
2019-04-28T04:39:26.831Z,9.60
2019-04-28T04:42:03.791Z,9.60
2019-04-28T04:44:41.642Z,9.60
2019-04-28T04:47:21.091Z,9.70
2019-04-28T04:50:00.049Z,9.70
2019-04-28T04:52:36.136Z,9.70
2019-04-28T04:55:13.188Z,9.70
2019-04-28T04:57:50.743Z,9.70
2019-04-28T05:00:30.663Z,9.80
2019-04-28T05:03:15.193Z,9.80
2019-04-28T05:05:52.253Z,9.80
2019-04-28T05:08:30.156Z,9.80
2019-04-28T05:11:12.578Z,9.80
2019-04-28T05:14:01.375Z,9.80
2019-04-28T05:16:45.596Z,9.80
2019-04-28T05:19:26.485Z,9.80
2019-04-28T05:22:05.309Z,9.80
2019-04-28T05:25:01.616Z,9.80
2019-04-28T05:27:39.960Z,9.90
2019-04-28T05:30:17.035Z,9.90
2019-04-28T05:32:56.370Z,9.90
2019-04-28T05:35:35.651Z,9.90
2019-04-28T05:38:12.624Z,9.90
2019-04-28T05:40:49.865Z,9.90
2019-04-28T05:43:26.971Z,9.90
2019-04-28T05:46:04.055Z,9.90
2019-04-28T05:48:57.762Z,9.90
2019-04-28T05:51:36.390Z,10.00
2019-04-28T05:54:19.737Z,10.00
2019-04-28T05:56:59.720Z,9.90
2019-04-28T05:59:55.276Z,9.90
2019-04-28T06:02:36.647Z,9.90
2019-04-28T06:05:15.454Z,9.90
2019-04-28T06:08:09.989Z,9.90
2019-04-28T06:10:47.347Z,10.00
2019-04-28T06:13:24.361Z,10.00
2019-04-28T06:16:01.369Z,10.10
2019-04-28T06:18:39.460Z,10.10
2019-04-28T06:21:19.173Z,10.10
2019-04-28T06:23:56.236Z,10.10
2019-04-28T06:26:33.256Z,10.10
2019-04-28T06:29:13.304Z,10.10
2019-04-28T06:31:50.341Z,10.10
2019-04-28T06:34:28.948Z,10.10
2019-04-28T06:37:06.027Z,10.20
2019-04-28T06:39:43.046Z,10.20
2019-04-28T06:42:20.051Z,10.30
2019-04-28T06:44:57.080Z,10.30
2019-04-28T06:47:34.128Z,10.30
2019-04-28T06:50:11.186Z,10.30
2019-04-28T06:52:52.593Z,10.40
2019-04-28T06:55:31.210Z,10.40
2019-04-28T06:58:08.234Z,10.50
2019-04-28T07:00:45.287Z,10.60
2019-04-28T07:03:23.230Z,10.70
2019-04-28T07:06:00.555Z,10.80
2019-04-28T07:08:37.560Z,10.80
2019-04-28T07:11:14.633Z,10.90
2019-04-28T07:13:52.898Z,10.90
2019-04-28T07:16:32.356Z,10.90
2019-04-28T07:19:12.009Z,10.90
2019-04-28T07:22:09.092Z,11.00
2019-04-28T07:24:46.069Z,11.20
2019-04-28T07:27:26.083Z,11.40
2019-04-28T07:30:06.178Z,11.50
2019-04-28T07:32:43.279Z,11.50
2019-04-28T07:35:20.264Z,11.50
2019-04-28T07:37:57.401Z,11.70
2019-04-28T07:40:34.480Z,11.80
2019-04-28T07:43:11.539Z,12.00
2019-04-28T07:45:51.003Z,12.10
2019-04-28T07:48:28.133Z,12.20
2019-04-28T07:51:17.338Z,12.20
2019-04-28T07:53:56.042Z,12.30
2019-04-28T07:56:33.022Z,12.20
2019-04-28T07:59:10.247Z,12.40
2019-04-28T08:01:50.791Z,12.60
2019-04-28T08:04:27.866Z,12.80
2019-04-28T08:07:04.838Z,12.90
2019-04-28T08:09:41.909Z,12.80
2019-04-28T08:12:18.905Z,12.80
2019-04-28T08:14:55.968Z,12.80
2019-04-28T08:17:32.948Z,13.00
2019-04-28T08:20:09.974Z,13.00
2019-04-28T08:22:47.036Z,13.00
2019-04-28T08:25:24.113Z,13.10
2019-04-28T08:28:01.185Z,13.00
2019-04-28T08:30:38.235Z,13.00
2019-04-28T08:33:22.872Z,13.10
2019-04-28T08:35:59.896Z,13.20
2019-04-28T08:38:36.899Z,13.20
2019-04-28T08:41:13.978Z,13.30
2019-04-28T08:43:50.951Z,13.30
2019-04-28T08:46:27.994Z,13.40
2019-04-28T08:49:04.969Z,13.50
2019-04-28T08:51:42.245Z,13.40
2019-04-28T08:54:25.680Z,13.20
2019-04-28T08:57:03.902Z,13.10
2019-04-28T08:59:40.914Z,13.20
2019-04-28T09:02:23.880Z,13.40
2019-04-28T09:05:08.362Z,13.50
2019-04-28T09:07:45.399Z,13.50
2019-04-28T09:10:22.400Z,13.60
2019-04-28T09:12:59.467Z,13.60
2019-04-28T09:15:36.466Z,13.60
2019-04-28T09:18:13.478Z,13.60
2019-04-28T09:20:51.345Z,13.70
2019-04-28T09:23:28.377Z,13.90
2019-04-28T09:26:05.384Z,13.90
2019-04-28T09:28:42.426Z,13.90
2019-04-28T09:31:21.588Z,14.00
2019-04-28T09:34:07.328Z,14.00
2019-04-28T09:36:46.718Z,14.10
2019-04-28T09:39:28.313Z,14.00
2019-04-28T09:42:23.329Z,14.10
2019-04-28T09:45:08.178Z,14.20
2019-04-28T09:47:45.285Z,14.30
2019-04-28T09:50:22.388Z,14.40
2019-04-28T09:52:59.509Z,14.40
2019-04-28T09:55:39.179Z,14.40
2019-04-28T09:58:16.247Z,14.30
2019-04-28T10:00:53.233Z,14.20
2019-04-28T10:03:37.706Z,14.20
2019-04-28T10:06:15.746Z,14.30
2019-04-28T10:08:52.824Z,14.30
2019-04-28T10:11:30.862Z,14.20
2019-04-28T10:14:07.998Z,14.10
2019-04-28T10:16:45.045Z,13.90
2019-04-28T10:19:22.218Z,13.80
2019-04-28T10:21:59.231Z,13.90
2019-04-28T10:24:38.474Z,13.90
2019-04-28T10:27:15.524Z,13.90
2019-04-28T10:29:52.552Z,14.00
2019-04-28T10:32:29.558Z,14.10
2019-04-28T10:35:07.159Z,14.30
2019-04-28T10:37:45.576Z,14.40
2019-04-28T10:40:41.966Z,14.20
2019-04-28T10:43:18.998Z,14.10
2019-04-28T10:45:56.058Z,14.20
2019-04-28T10:48:33.039Z,14.30
2019-04-28T10:51:10.103Z,14.30
2019-04-28T10:53:47.095Z,14.50
2019-04-28T10:56:24.157Z,14.60
2019-04-28T10:59:01.416Z,14.50
2019-04-28T11:01:38.478Z,14.40
2019-04-28T11:04:36.540Z,14.30
2019-04-28T11:07:15.414Z,14.30
2019-04-28T11:09:56.742Z,14.40
2019-04-28T11:12:33.755Z,14.30
2019-04-28T11:15:12.394Z,14.10
2019-04-28T11:17:49.448Z,14.10
2019-04-28T11:20:29.541Z,14.00
2019-04-28T11:23:06.587Z,14.00
2019-04-28T11:25:43.577Z,14.00
2019-04-28T11:28:27.738Z,14.00
2019-04-28T11:31:04.795Z,13.90
2019-04-28T11:33:46.659Z,13.80
2019-04-28T11:36:25.608Z,13.80
2019-04-28T11:39:27.303Z,13.90
2019-04-28T11:42:04.322Z,14.00
2019-04-28T11:44:41.436Z,14.10
2019-04-28T11:47:20.066Z,14.10
2019-04-28T11:49:57.159Z,14.20
2019-04-28T11:52:34.225Z,14.20
2019-04-28T11:55:12.410Z,14.30
2019-04-28T11:57:50.535Z,14.30
2019-04-28T12:00:29.268Z,14.30
2019-04-28T12:03:06.735Z,14.10
2019-04-28T12:05:45.379Z,14.10
2019-04-28T12:08:22.440Z,14.10
2019-04-28T12:11:09.959Z,14.00
2019-04-28T12:13:51.815Z,13.90
2019-04-28T12:16:43.838Z,13.90
2019-04-28T12:19:31.307Z,13.80
2019-04-28T12:22:11.256Z,13.70
2019-04-28T12:24:50.748Z,13.50
2019-04-28T12:27:28.606Z,13.50
2019-04-28T12:30:06.119Z,13.40
2019-04-28T12:32:43.173Z,13.50
2019-04-28T12:35:20.372Z,13.50
2019-04-28T12:37:57.681Z,13.40
2019-04-28T12:40:34.775Z,13.50
2019-04-28T12:43:11.785Z,13.50
2019-04-28T12:45:48.837Z,13.50
2019-04-28T12:48:25.960Z,13.60
2019-04-28T12:51:03.015Z,13.70
2019-04-28T12:53:40.042Z,13.70
2019-04-28T12:56:17.231Z,13.70
2019-04-28T12:59:03.940Z,13.60
2019-04-28T13:01:48.631Z,13.50
2019-04-28T13:04:39.647Z,13.50
2019-04-28T13:07:16.706Z,13.50
2019-04-28T13:09:53.788Z,13.60
2019-04-28T13:12:30.849Z,13.70
2019-04-28T13:15:20.309Z,13.70
2019-04-28T13:17:57.657Z,13.70
2019-04-28T13:20:36.314Z,13.80
2019-04-28T13:23:13.362Z,13.80
2019-04-28T13:25:53.305Z,13.70
2019-04-28T13:28:30.325Z,13.70
2019-04-28T13:31:07.352Z,13.70
2019-04-28T13:33:56.013Z,13.80
2019-04-28T13:36:23.051Z,13.70
2019-04-28T13:39:01.741Z,13.70
2019-04-28T13:41:38.811Z,13.70
2019-04-28T13:44:17.519Z,13.70
2019-04-28T13:46:54.570Z,13.70
2019-04-28T13:49:33.269Z,13.70
2019-04-28T13:52:10.291Z,13.60
2019-04-28T13:54:48.979Z,13.50
2019-04-28T13:57:25.978Z,13.50
2019-04-28T14:00:06.758Z,13.50
2019-04-28T14:02:45.676Z,13.50
2019-04-28T14:05:24.287Z,13.50
2019-04-28T14:08:01.363Z,13.60
2019-04-28T14:10:38.393Z,13.50
2019-04-28T14:13:15.453Z,13.50
2019-04-28T14:15:52.625Z,13.50
2019-04-28T14:18:29.637Z,13.50
2019-04-28T14:21:08.039Z,13.50
2019-04-28T14:23:45.514Z,13.50
2019-04-28T14:26:22.567Z,13.50
2019-04-28T14:28:59.597Z,13.40
2019-04-28T14:31:36.621Z,13.50
2019-04-28T14:34:13.636Z,13.40
2019-04-28T14:36:50.702Z,13.40
2019-04-28T14:39:28.665Z,13.40
2019-04-28T14:42:05.742Z,13.30
2019-04-28T14:44:45.216Z,13.20
2019-04-28T14:47:22.292Z,13.10
2019-04-28T14:50:02.691Z,13.10
2019-04-28T14:52:38.485Z,13.00
2019-04-28T14:55:15.513Z,13.00
2019-04-28T14:57:52.591Z,12.90
2019-04-28T15:00:37.557Z,12.90
2019-04-28T15:03:16.186Z,12.80
2019-04-28T15:06:01.117Z,12.80
2019-04-28T15:08:56.056Z,12.80
2019-04-28T15:11:34.896Z,12.80
2019-04-28T15:14:12.045Z,12.80
2019-04-28T15:16:49.102Z,12.70
2019-04-28T15:19:26.175Z,12.70
2019-04-28T15:22:03.230Z,12.60
2019-04-28T15:24:40.255Z,12.50
2019-04-28T15:27:17.312Z,12.40
2019-04-28T15:29:54.510Z,12.30
2019-04-28T15:32:38.886Z,12.20
2019-04-28T15:35:15.872Z,12.10
2019-04-28T15:37:53.421Z,12.00
2019-04-28T15:40:30.689Z,11.90
2019-04-28T15:43:07.724Z,11.80
2019-04-28T15:45:44.731Z,11.80
2019-04-28T15:48:29.094Z,11.70
2019-04-28T15:51:06.082Z,11.70
2019-04-28T15:53:50.759Z,11.60
2019-04-28T15:56:29.522Z,11.60
2019-04-28T15:59:10.037Z,11.60
2019-04-28T16:01:47.210Z,11.60
2019-04-28T16:04:24.305Z,11.60
2019-04-28T16:07:01.465Z,11.60
2019-04-28T16:09:40.987Z,11.60
2019-04-28T16:12:17.421Z,11.60
2019-04-28T16:14:54.422Z,11.60
2019-04-28T16:17:31.760Z,11.60
2019-04-28T16:20:08.841Z,11.60
2019-04-28T16:22:45.883Z,11.60
2019-04-28T16:25:22.893Z,11.60
2019-04-28T16:27:59.986Z,11.50
2019-04-28T16:30:37.511Z,11.50
2019-04-28T16:33:14.543Z,11.50
2019-04-28T16:35:55.589Z,11.50
2019-04-28T16:38:32.611Z,11.40
2019-04-28T16:41:09.857Z,11.40
2019-04-28T16:43:47.197Z,11.40
2019-04-28T16:46:24.383Z,11.30
2019-04-28T16:49:05.143Z,11.30
2019-04-28T16:51:42.206Z,11.30
2019-04-28T16:54:19.248Z,11.20
2019-04-28T16:57:00.491Z,11.20
2019-04-28T16:59:41.806Z,11.20
2019-04-28T17:02:20.519Z,11.20
2019-04-28T17:04:57.564Z,11.10
2019-04-28T17:07:34.663Z,11.10
2019-04-28T17:10:11.756Z,11.10
2019-04-28T17:12:48.774Z,11.10
2019-04-28T17:15:25.767Z,11.00
2019-04-28T17:18:02.776Z,11.00
2019-04-28T17:20:39.845Z,10.90
2019-04-28T17:23:16.961Z,10.90
2019-04-28T17:25:54.070Z,10.90
2019-04-28T17:28:32.079Z,10.80
2019-04-28T17:31:09.237Z,10.80
2019-04-28T17:33:46.341Z,10.80
2019-04-28T17:36:23.377Z,10.70
2019-04-28T17:39:01.504Z,10.70
2019-04-28T17:41:38.521Z,10.70
2019-04-28T17:44:17.235Z,10.70
2019-04-28T17:46:54.419Z,10.60
2019-04-28T17:49:33.154Z,10.60
2019-04-28T17:52:13.264Z,10.60
2019-04-28T17:54:50.305Z,10.50
2019-04-28T17:57:27.380Z,10.50
2019-04-28T18:00:23.227Z,10.50
2019-04-28T18:03:05.578Z,10.50
2019-04-28T18:05:44.242Z,10.40
2019-04-28T18:08:21.557Z,10.40
2019-04-28T18:10:58.639Z,10.40
2019-04-28T18:13:35.694Z,10.40
2019-04-28T18:16:25.525Z,10.30
2019-04-28T18:19:14.163Z,10.30
2019-04-28T18:21:51.220Z,10.30
2019-04-28T18:24:32.896Z,10.30
2019-04-28T18:27:13.096Z,10.20
2019-04-28T18:29:58.014Z,10.20
2019-04-28T18:32:55.033Z,10.20
2019-04-28T18:35:33.806Z,10.20
2019-04-28T18:38:12.895Z,10.10
2019-04-28T18:41:17.666Z,10.10
2019-04-28T18:44:08.505Z,10.10
2019-04-28T18:46:45.519Z,10.10
2019-04-28T18:49:25.222Z,10.10
2019-04-28T18:52:02.380Z,10.00
2019-04-28T18:54:39.428Z,10.00
2019-04-28T18:57:16.564Z,10.00
2019-04-28T18:59:53.590Z,10.00
2019-04-28T19:02:35.412Z,10.00
2019-04-28T19:05:12.646Z,10.00
2019-04-28T19:07:51.389Z,9.90
2019-04-28T19:10:40.381Z,9.90
2019-04-28T19:13:19.120Z,9.90
2019-04-28T19:16:07.337Z,9.80
2019-04-28T19:18:46.131Z,9.80
2019-04-28T19:21:30.675Z,9.80
2019-04-28T19:24:08.147Z,9.80
2019-04-28T19:26:45.217Z,9.80
2019-04-28T19:29:23.943Z,9.80
2019-04-28T19:32:01.009Z,9.70
2019-04-28T19:34:38.192Z,9.70
2019-04-28T19:37:16.688Z,9.70
2019-04-28T19:39:53.878Z,9.70
2019-04-28T19:42:31.120Z,9.70
2019-04-28T19:45:12.014Z,9.70
2019-04-28T19:47:49.038Z,9.70
2019-04-28T19:50:26.109Z,9.70
2019-04-28T19:53:05.190Z,9.70
2019-04-28T19:55:45.547Z,9.70
2019-04-28T19:58:29.296Z,9.70
2019-04-28T20:01:23.040Z,9.70
2019-04-28T20:04:00.073Z,9.70
2019-04-28T20:06:41.985Z,9.70
2019-04-28T20:09:19.004Z,9.70
2019-04-28T20:11:56.104Z,9.70
2019-04-28T20:14:33.155Z,9.70
2019-04-28T20:17:10.235Z,9.70
2019-04-28T20:19:48.141Z,9.70
2019-04-28T20:22:25.166Z,9.70
2019-04-28T20:25:02.229Z,9.80
2019-04-28T20:27:39.230Z,9.70
2019-04-28T20:30:17.018Z,9.80
2019-04-28T20:33:06.437Z,9.80
2019-04-28T20:35:40.293Z,9.70
2019-04-28T20:38:28.017Z,9.70
2019-04-28T20:41:12.724Z,9.70
2019-04-28T20:43:49.720Z,9.70
2019-04-28T20:46:27.923Z,9.70
2019-04-28T20:49:04.940Z,9.70
2019-04-28T20:51:42.014Z,9.60
2019-04-28T20:54:18.990Z,9.60
2019-04-28T20:56:56.080Z,9.60
2019-04-28T20:59:33.061Z,9.60
2019-04-28T21:02:11.308Z,9.60
2019-04-28T21:04:48.380Z,9.60
2019-04-28T21:07:25.451Z,9.60
2019-04-28T21:10:02.534Z,9.60
2019-04-28T21:12:40.647Z,9.60
2019-04-28T21:15:17.819Z,9.60
2019-04-28T21:17:54.945Z,9.60
2019-04-28T21:20:32.028Z,9.60
2019-04-28T21:23:09.002Z,9.60
2019-04-28T21:25:49.369Z,9.60
2019-04-28T21:28:26.358Z,9.60
2019-04-28T21:31:03.440Z,9.50
2019-04-28T21:33:40.473Z,9.60
2019-04-28T21:36:17.542Z,9.60
2019-04-28T21:38:55.651Z,9.60
2019-04-28T21:41:36.762Z,9.60
2019-04-28T21:44:21.452Z,9.50
2019-04-28T21:47:03.202Z,9.50
2019-04-28T21:49:42.052Z,9.50
2019-04-28T21:52:19.044Z,9.50
2019-04-28T21:54:56.131Z,9.50
2019-04-28T21:57:34.095Z,9.50
2019-04-28T22:00:16.699Z,9.50
2019-04-28T22:02:53.776Z,9.50
2019-04-28T22:05:31.664Z,9.50
2019-04-28T22:11:34.084Z,9.50
2019-04-28T22:14:11.050Z,9.50
2019-04-28T22:16:48.190Z,9.50
2019-04-28T22:19:25.179Z,9.50
2019-04-28T22:22:02.316Z,9.50
2019-04-28T22:24:50.172Z,9.50
2019-04-28T22:27:28.931Z,9.50
2019-04-28T22:30:08.810Z,9.40
2019-04-28T22:32:45.960Z,9.40
2019-04-28T22:35:22.943Z,9.40
2019-04-28T22:38:02.924Z,9.40
2019-04-28T22:40:39.892Z,9.40
2019-04-28T22:43:16.934Z,9.40
2019-04-28T22:45:53.974Z,9.40
2019-04-28T22:48:31.109Z,9.40
2019-04-28T22:51:08.125Z,9.40
2019-04-28T22:53:45.170Z,9.30
2019-04-28T22:56:25.088Z,9.30
2019-04-28T22:59:03.787Z,9.30
2019-04-28T23:01:42.474Z,9.30
2019-04-28T23:04:27.306Z,9.30
2019-04-28T23:07:04.482Z,9.30
2019-04-28T23:09:41.507Z,9.30
2019-04-28T23:12:18.570Z,9.20
2019-04-28T23:14:55.578Z,9.20
2019-04-28T23:17:32.620Z,9.20
2019-04-28T23:20:12.033Z,9.20
2019-04-28T23:22:50.767Z,9.20
2019-04-28T23:25:27.819Z,9.10
2019-04-28T23:28:04.843Z,9.10
2019-04-28T23:30:44.891Z,9.10
2019-04-28T23:33:21.950Z,9.10
2019-04-28T23:35:58.989Z,9.00
2019-04-28T23:38:36.041Z,9.00
2019-04-28T23:41:30.961Z,8.90
2019-04-28T23:44:07.989Z,8.90
2019-04-28T23:46:58.639Z,8.90
2019-04-28T23:49:35.831Z,8.90
2019-04-28T23:52:20.673Z,8.80
2019-04-28T23:55:05.363Z,8.80
2019-04-28T23:57:42.359Z,8.80
